• Join FlightAware (Why Join?)
  • Login
  • US Flag 
07:31PM EDT


 

Airport Tracker/Info


-or-


 

Live Flight TrackerFlight Track Log ✈ EJA929 ✈ 16-May-2013 ✈ KSEA - KVNY

Flight Track Log - Related Links

Times and Time Zones

All times are in EDT time to prevent confusion due to time zone crossing. See the EJA929 flight status page for this flight to view local times or setup timezone preferences in your user account.

Time Position Orientation Groundspeed Altitude Reporting Facility
EDT Latitude Longitude Course Direction KTS MPH feet Rate Location/Type
04:25PM 47.5428 -122.3133 359° North 247 284 5,700  Level Seattle Center
04:26PM 47.6047 -122.3744 326° Northwest 303 349 8,900 2,220 Climbing Seattle Center
04:27PM 47.6136 -122.4269 284° West 290 334 8,900 1,380 Level Seattle Center
04:28PM 47.5775 -122.5322 243° Southwest 302 348 10,900 2,160 Climbing Seattle Center
04:29PM 47.5147 -122.6278 226° Southwest 325 374 13,300 2,280 Climbing Seattle Center
04:30PM 47.4419 -122.7397 226° Southwest 350 403 15,600 2,100 Climbing Seattle Center
04:31PM 47.3708 -122.8467 226° Southwest 365 420 17,600 1,800 Climbing Seattle Center
04:32PM 47.3042 -122.9494 226° Southwest 374 430 19,300 1,620 Climbing Seattle Center
04:33PM 47.2100 -123.0089 203° Southwest 391 450 20,900 1,620 Climbing Seattle Center
04:34PM 47.1028 -123.0058 179° South 392 451 22,700 1,680 Climbing Seattle Center
04:35PM 46.9931 -123.0019 179° South 398 458 24,400 1,920 Climbing Seattle Center
04:36PM 46.8592 -122.9992 179° South 404 465 26,700 1,920 Climbing Seattle Center
04:37PM 46.7439 -122.9950 179° South 417 480 28,400 1,860 Climbing Seattle Center
04:38PM 46.6294 -122.9986 181° South 416 479 30,500 1,920 Climbing Seattle Center
04:39PM 46.5092 -122.9922 178° South 432 497 32,400 1,920 Climbing Seattle Center
04:40PM 46.3867 -122.9850 178° South 440 506 34,500 1,980 Climbing Seattle Center
04:41PM 46.2653 -122.9875 181° South 441 507 36,500 1,560 Climbing Seattle Center
04:42PM 46.1425 -122.9861 180° South 444 511 37,700 1,200 Climbing Seattle Center
04:43PM 45.9864 -122.9758 177° South 463 533 39,000 1,140 Climbing Seattle Center
04:44PM 45.8589 -122.9719 179° South 462 532 40,100 960 Climbing Seattle Center
04:45PM 45.7289 -122.9733 180° South 469 540 41,000 420 Climbing Seattle Center
04:46PM 45.5964 -122.9703 179° South 477 549 41,000  Level Seattle Center
04:47PM 45.4603 -122.9658 179° South 487 560 41,000  Level Seattle Center
04:48PM 45.3206 -122.9611 179° South 498 573 41,000  Level Seattle Center
04:49PM 45.1814 -122.9572 179° South 501 577 41,000  Level Seattle Center
04:50PM 45.0400 -122.9550 179° South 508 585 41,000  Level Seattle Center
04:51PM 44.8997 -122.9511 179° South 507 583 41,000  Level Seattle Center
04:52PM 44.7608 -122.9478 179° South 499 574 41,000  Level Seattle Center
04:53PM 44.6197 -122.9461 180° South 502 578 41,000  Level Seattle Center
04:54PM 44.4781 -122.9347 177° South 507 583 41,000  Level Seattle Center
04:55PM 44.3383 -122.8897 167° South 509 586 41,000  Level Seattle Center
04:56PM 44.1986 -122.8425 166° South 509 586 41,000  Level Seattle Center
04:57PM 44.0581 -122.7972 167° South 512 589 41,000  Level Seattle Center
04:58PM 43.9203 -122.7514 167° South 505 581 41,000  Level Seattle Center
04:59PM 43.7556 -122.6969 167° South 505 581 41,000  Level Seattle Center
05:00PM 43.6194 -122.6531 167° South 502 578 41,000  Level Seattle Center
05:01PM 43.4806 -122.6114 168° South 509 586 41,000  Level Seattle Center
05:02PM 43.3439 -122.5617 165° South 507 583 41,000  Level Seattle Center
05:03PM 43.2047 -122.5214 168° South 509 586 41,000  Level Seattle Center
05:05PM 42.9286 -122.4333 167° South 509 586 41,000  Level Seattle Center
05:06PM 42.7911 -122.3900 167° South 508 585 41,000  Level Seattle Center
05:07PM 42.6408 -122.3397 166° South 510 587 41,000  Level Seattle Center
05:08PM 42.5025 -122.2969 167° South 511 588 41,000  Level Seattle Center
05:09PM 42.3644 -122.2544 167° South 510 587 41,000  Level Seattle Center
05:10PM 42.2269 -122.2131 167° South 511 588 41,000  Level Seattle Center
05:11PM 42.0900 -122.1694 167° South 513 590 41,000  Level Seattle Center
05:12PM 41.9561 -122.1281 167° South 509 586 41,000  Level Seattle Center
05:13PM 41.8183 -122.0869 167° South 512 589 41,000  Level Seattle Center
05:14PM 41.6803 -122.0456 167° South 511 588 41,000  Level Seattle Center
05:15PM 41.5147 -121.9953 167° South 511 588 41,000  Level Seattle Center
05:16PM 41.3775 -121.9544 167° South 508 585 41,000  Level Seattle Center
05:17PM 41.2400 -121.9131 167° South 507 583 41,000  Level Seattle Center
05:18PM 41.1022 -121.8719 167° South 507 583 41,000  Level Seattle Center
05:19PM 40.9925 -121.8383 167° South 504 580 41,000  Level Oakland Center
05:20PM 40.8561 -121.7978 167° South 504 580 41,000  Level Oakland Center
05:21PM 40.7189 -121.7544 167° South 506 582 41,000  Level Oakland Center
05:22PM 40.5819 -121.7125 167° South 506 582 41,000  Level Oakland Center
05:23PM 40.4167 -121.6697 169° South 502 578 41,000  Level Oakland Center
05:24PM 40.2794 -121.6292 167° South 504 580 41,000  Level Oakland Center
05:25PM 40.1417 -121.5900 168° South 505 581 41,000  Level Oakland Center
05:27PM 40.0042 -121.5483 167° South 507 583 41,000  Level Oakland Center
05:28PM 39.8656 -121.5106 168° South 508 585 41,000  Level Oakland Center
05:29PM 39.7278 -121.4700 167° South 507 583 41,000  Level Oakland Center
05:30PM 39.5903 -121.4297 167° South 507 583 41,000  Level Oakland Center
05:31PM 39.4522 -121.3908 168° South 507 583 41,000  Level Oakland Center
05:32PM 39.3156 -121.3511 167° South 505 581 41,000  Level Oakland Center
05:33PM 39.1511 -121.3044 168° South 503 579 41,000  Level Oakland Center
05:34PM 39.0153 -121.2661 168° South 500 575 41,000  Level Oakland Center
05:35PM 38.8789 -121.2269 167° South 499 574 41,000  Level Oakland Center
05:36PM 38.7411 -121.1883 168° South 503 579 41,000  Level Oakland Center
05:37PM 38.6008 -121.1489 168° South 502 578 41,000  Level Oakland Center
05:38PM 38.4586 -121.1094 168° South 505 581 41,000  Level Oakland Center
05:39PM 38.3197 -121.0711 168° South 505 581 41,000  Level Oakland Center
05:40PM 38.1836 -121.0331 168° South 501 577 41,000  Level Oakland Center
05:41PM 38.0508 -120.9922 166° South 493 567 41,000  Level Oakland Center
05:42PM 37.9192 -120.9356 161° South 496 571 41,000  Level Oakland Center
05:43PM 37.7875 -120.8775 161° South 499 574 41,000  Level Oakland Center
05:44PM 37.6578 -120.8211 161° South 494 568 41,000  Level Oakland Center
05:45PM 37.5272 -120.7628 160° South 496 571 41,000  Level Oakland Center
05:46PM 37.3986 -120.6969 158° South 498 573 41,000  Level Oakland Center
05:47PM 37.2433 -120.6194 158° South 496 571 41,000  Level Oakland Center
05:48PM 37.1122 -120.5567 159° South 492 566 41,000 -60 Level Oakland Center
05:49PM 36.9856 -120.4911 158° South 489 563 40,900 -720 Descending Oakland Center
05:50PM 36.8614 -120.4289 158° South 492 566 39,600 -1,320 Descending Oakland Center
05:51PM 36.7461 -120.3692 157° South 459 528 38,200 -1,380 Descending Oakland Center
05:52PM 36.6239 -120.3075 158° South 469 540 36,800 -1,560 Descending Oakland Center
05:53PM 36.4764 -120.2325 158° South 486 559 35,100 -1,560 Descending Oakland Center
05:54PM 36.3494 -120.1703 158° South 491 565 33,700 -1,380 Descending Oakland Center
05:55PM 36.2206 -120.1069 158° South 497 572 32,300 -1,320 Descending Oakland Center
05:56PM 36.0889 -120.0414 158° South 506 582 31,000 -660 Descending Oakland Center
05:57PM 35.9589 -119.9814 160° South 496 571 31,000  Level Oakland Center
05:58PM 35.8258 -119.9175 159° South 506 582 31,000 -180 Level Oakland Center
05:59PM 35.6931 -119.8528 158° South 509 586 30,700 -780 Descending Oakland Center
06:00PM 35.5672 -119.7903 158° South 488 562 29,500 -1,200 Descending Oakland Center
06:01PM 35.4519 -119.7347 159° South 449 517 28,300 -1,320 Descending Oakland Center
06:02PM 35.3336 -119.6778 159° South 450 518 26,800 -1,620 Descending Oakland Center
06:03PM 35.2872 -119.6558 159° South 450 518 26,200 -1,560 Descending Los Angeles Center
06:04PM 35.1842 -119.5781 148° Southeast 436 502 24,700 -1,080 Descending Los Angeles Center
06:05PM 35.0850 -119.4933 145° Southeast 434 499 24,000 -1,140 Descending Los Angeles Center
06:06PM 34.9894 -119.4125 145° Southeast 421 484 22,400 -1,920 Descending Los Angeles Center
06:07PM 34.8739 -119.3142 145° Southeast 423 487 19,700 -2,340 Descending Los Angeles Center
06:08PM 34.7611 -119.2183 145° Southeast 412 474 17,100 -2,040 Descending Los Angeles Center
06:09PM 34.6736 -119.1456 146° Southeast 385 443 15,100 -2,040 Descending Los Angeles Center
06:10PM 34.5586 -119.0503 146° Southeast 400 460 12,500 -2,040 Descending Los Angeles Center
06:11PM 34.4703 -118.9761 145° Southeast 384 442 10,900 -1,800 Descending Los Angeles Center
06:12PM 34.3992 -118.9111 143° Southeast 317 365 8,900 -2,040 Descending Los Angeles Center
06:13PM 34.3858 -118.8150 100° East 289 333 6,800 -1,620 Descending Los Angeles Center
06:14PM 34.3792 -118.7264 95° East 266 306 5,600 -900 Descending Los Angeles Center
06:15PM 34.3692 -118.6294 97° East 252 290 5,000 -300 Descending Los Angeles Center
06:17PM 34.3878 -118.5536 73° East 241 277 5,000 -240 Level Los Angeles Center
06:18PM 34.3528 -118.4975 127° Southeast 247 284 4,600 -900 Descending Los Angeles Center
06:19PM 34.2944 -118.4992 181° South 223 257 3,200 -1,260 Descending Los Angeles Center
06:20PM 34.2528 -118.4958 176° South 183 211 2,000 -900 Descending Los Angeles Center
06:21PM 34.2153 -118.4908 174° South 156 180 1,400 -600 Descending Los Angeles Center
06:23PM 34.2098 -118.4900 180° South  Level Estimated
06:30PM 34.2098 -118.4900 180° South  Level Estimated